sensor_id;sensor_type;location;lat;lon;timestamp;temperature;humidity
26336;DHT22;14047;50.936;4.654;2023-07-24T00:02:06;20.10;99.90
26336;DHT22;14047;50.936;4.654;2023-07-24T00:04:32;20.10;99.90
26336;DHT22;14047;50.936;4.654;2023-07-24T00:06:58;20.10;99.90
26336;DHT22;14047;50.936;4.654;2023-07-24T00:09:24;20.00;99.90
26336;DHT22;14047;50.936;4.654;2023-07-24T00:11:50;20.00;99.90
26336;DHT22;14047;50.936;4.654;2023-07-24T00:14:17;19.90;99.90
26336;DHT22;14047;50.936;4.654;2023-07-24T00:16:43;20.00;99.90
26336;DHT22;14047;50.936;4.654;2023-07-24T00:19:09;20.10;99.90
26336;DHT22;14047;50.936;4.654;2023-07-24T00:21:34;20.10;99.90
26336;DHT22;14047;50.936;4.654;2023-07-24T00:24:00;20.10;99.90
26336;DHT22;14047;50.936;4.654;2023-07-24T00:26:26;20.10;99.90
26336;DHT22;14047;50.936;4.654;2023-07-24T00:28:52;20.10;99.90
26336;DHT22;14047;50.936;4.654;2023-07-24T00:31:19;20.20;99.90
26336;DHT22;14047;50.936;4.654;2023-07-24T00:33:45;20.30;99.90
26336;DHT22;14047;50.936;4.654;2023-07-24T00:36:11;20.30;99.90
26336;DHT22;14047;50.936;4.654;2023-07-24T00:38:39;20.30;99.90
26336;DHT22;14047;50.936;4.654;2023-07-24T00:41:05;20.30;99.90
26336;DHT22;14047;50.936;4.654;2023-07-24T00:43:32;20.30;99.90
26336;DHT22;14047;50.936;4.654;2023-07-24T00:45:58;20.20;99.90
26336;DHT22;14047;50.936;4.654;2023-07-24T00:48:24;20.20;99.90
26336;DHT22;14047;50.936;4.654;2023-07-24T00:50:50;20.20;99.90
26336;DHT22;14047;50.936;4.654;2023-07-24T00:53:17;20.30;99.90
26336;DHT22;14047;50.936;4.654;2023-07-24T00:55:44;20.30;99.90
26336;DHT22;14047;50.936;4.654;2023-07-24T00:58:11;20.30;99.90
26336;DHT22;14047;50.936;4.654;2023-07-24T01:00:38;20.30;99.90
26336;DHT22;14047;50.936;4.654;2023-07-24T01:03:05;20.10;99.90
26336;DHT22;14047;50.936;4.654;2023-07-24T01:05:31;19.90;99.90
26336;DHT22;14047;50.936;4.654;2023-07-24T01:07:57;19.90;99.90
26336;DHT22;14047;50.936;4.654;2023-07-24T01:10:23;20.00;99.90
26336;DHT22;14047;50.936;4.654;2023-07-24T01:15:32;20.00;99.90
26336;DHT22;14047;50.936;4.654;2023-07-24T01:18:03;19.90;99.90
26336;DHT22;14047;50.936;4.654;2023-07-24T01:20:35;19.90;99.90
26336;DHT22;14047;50.936;4.654;2023-07-24T01:26:06;20.10;99.90
26336;DHT22;14047;50.936;4.654;2023-07-24T01:28:32;20.20;99.90
26336;DHT22;14047;50.936;4.654;2023-07-24T01:30:58;20.30;99.90
26336;DHT22;14047;50.936;4.654;2023-07-24T01:33:24;20.30;99.90
26336;DHT22;14047;50.936;4.654;2023-07-24T01:35:59;20.40;99.90
26336;DHT22;14047;50.936;4.654;2023-07-24T01:38:27;20.40;99.90
26336;DHT22;14047;50.936;4.654;2023-07-24T01:40:57;20.40;99.90
26336;DHT22;14047;50.936;4.654;2023-07-24T01:43:25;20.40;99.90
26336;DHT22;14047;50.936;4.654;2023-07-24T01:45:54;20.40;99.90
26336;DHT22;14047;50.936;4.654;2023-07-24T01:48:20;20.20;99.90
26336;DHT22;14047;50.936;4.654;2023-07-24T01:50:46;20.20;99.90
26336;DHT22;14047;50.936;4.654;2023-07-24T01:53:13;20.20;99.90
26336;DHT22;14047;50.936;4.654;2023-07-24T01:55:39;20.20;99.90
26336;DHT22;14047;50.936;4.654;2023-07-24T01:58:05;20.30;99.90
26336;DHT22;14047;50.936;4.654;2023-07-24T02:00:31;20.20;99.90
26336;DHT22;14047;50.936;4.654;2023-07-24T02:02:57;20.20;99.90
26336;DHT22;14047;50.936;4.654;2023-07-24T02:05:23;20.20;99.90
26336;DHT22;14047;50.936;4.654;2023-07-24T02:07:49;20.20;99.90
26336;DHT22;14047;50.936;4.654;2023-07-24T02:10:15;20.10;99.90
26336;DHT22;14047;50.936;4.654;2023-07-24T02:12:41;19.60;99.90
26336;DHT22;14047;50.936;4.654;2023-07-24T02:15:07;19.60;99.90
26336;DHT22;14047;50.936;4.654;2023-07-24T02:17:33;19.40;99.90
26336;DHT22;14047;50.936;4.654;2023-07-24T02:19:59;19.40;99.90
26336;DHT22;14047;50.936;4.654;2023-07-24T02:22:25;19.30;99.90
26336;DHT22;14047;50.936;4.654;2023-07-24T02:24:51;19.30;99.90
26336;DHT22;14047;50.936;4.654;2023-07-24T02:27:27;19.20;99.90
26336;DHT22;14047;50.936;4.654;2023-07-24T02:29:57;19.20;99.90
26336;DHT22;14047;50.936;4.654;2023-07-24T02:32:23;19.10;99.90
26336;DHT22;14047;50.936;4.654;2023-07-24T02:34:50;19.10;99.90
26336;DHT22;14047;50.936;4.654;2023-07-24T02:37:17;19.10;99.90
26336;DHT22;14047;50.936;4.654;2023-07-24T02:39:43;19.00;99.90
26336;DHT22;14047;50.936;4.654;2023-07-24T02:42:09;19.00;99.90
26336;DHT22;14047;50.936;4.654;2023-07-24T02:44:35;19.10;99.90
26336;DHT22;14047;50.936;4.654;2023-07-24T02:47:01;19.30;99.90
26336;DHT22;14047;50.936;4.654;2023-07-24T02:49:28;19.30;99.90
26336;DHT22;14047;50.936;4.654;2023-07-24T02:51:54;19.40;99.90
26336;DHT22;14047;50.936;4.654;2023-07-24T02:54:20;19.50;99.90
26336;DHT22;14047;50.936;4.654;2023-07-24T02:56:46;19.40;99.90
26336;DHT22;14047;50.936;4.654;2023-07-24T02:59:12;19.30;99.90
26336;DHT22;14047;50.936;4.654;2023-07-24T03:01:38;19.30;99.90
26336;DHT22;14047;50.936;4.654;2023-07-24T03:04:04;19.20;99.90
26336;DHT22;14047;50.936;4.654;2023-07-24T03:06:31;19.20;99.90
26336;DHT22;14047;50.936;4.654;2023-07-24T03:08:57;19.20;99.90
26336;DHT22;14047;50.936;4.654;2023-07-24T03:11:23;19.20;99.90
26336;DHT22;14047;50.936;4.654;2023-07-24T03:13:49;19.20;99.90
26336;DHT22;14047;50.936;4.654;2023-07-24T03:16:15;19.20;99.90
26336;DHT22;14047;50.936;4.654;2023-07-24T03:18:43;19.30;99.90
26336;DHT22;14047;50.936;4.654;2023-07-24T03:21:09;19.20;99.90
26336;DHT22;14047;50.936;4.654;2023-07-24T03:23:35;19.20;99.90
26336;DHT22;14047;50.936;4.654;2023-07-24T03:26:01;19.20;99.90
26336;DHT22;14047;50.936;4.654;2023-07-24T03:28:27;19.10;99.90
26336;DHT22;14047;50.936;4.654;2023-07-24T03:30:53;18.90;99.90
26336;DHT22;14047;50.936;4.654;2023-07-24T03:33:20;18.90;99.90
26336;DHT22;14047;50.936;4.654;2023-07-24T03:35:46;18.80;99.90
26336;DHT22;14047;50.936;4.654;2023-07-24T03:38:12;18.80;99.90
26336;DHT22;14047;50.936;4.654;2023-07-24T03:40:37;18.70;99.90
26336;DHT22;14047;50.936;4.654;2023-07-24T03:43:03;18.70;99.90
26336;DHT22;14047;50.936;4.654;2023-07-24T03:45:31;18.70;99.90
26336;DHT22;14047;50.936;4.654;2023-07-24T03:47:57;18.60;99.90
26336;DHT22;14047;50.936;4.654;2023-07-24T03:50:23;18.70;99.90
26336;DHT22;14047;50.936;4.654;2023-07-24T03:52:49;18.70;99.90
26336;DHT22;14047;50.936;4.654;2023-07-24T03:55:15;18.80;99.90
26336;DHT22;14047;50.936;4.654;2023-07-24T03:57:40;18.80;99.90
26336;DHT22;14047;50.936;4.654;2023-07-24T04:00:07;18.80;99.90
26336;DHT22;14047;50.936;4.654;2023-07-24T04:02:39;18.80;99.90
26336;DHT22;14047;50.936;4.654;2023-07-24T04:05:05;18.70;99.90
26336;DHT22;14047;50.936;4.654;2023-07-24T04:07:31;18.60;99.90
26336;DHT22;14047;50.936;4.654;2023-07-24T04:09:57;18.70;99.90
26336;DHT22;14047;50.936;4.654;2023-07-24T04:12:23;18.70;99.90
26336;DHT22;14047;50.936;4.654;2023-07-24T04:14:49;18.80;99.90
26336;DHT22;14047;50.936;4.654;2023-07-24T04:17:16;18.70;99.90
26336;DHT22;14047;50.936;4.654;2023-07-24T04:19:42;18.70;99.90
26336;DHT22;14047;50.936;4.654;2023-07-24T04:22:08;18.80;99.90
26336;DHT22;14047;50.936;4.654;2023-07-24T04:24:34;18.80;99.90
26336;DHT22;14047;50.936;4.654;2023-07-24T04:27:00;18.80;99.90
26336;DHT22;14047;50.936;4.654;2023-07-24T04:29:26;18.70;99.90
26336;DHT22;14047;50.936;4.654;2023-07-24T04:31:52;18.80;99.90
26336;DHT22;14047;50.936;4.654;2023-07-24T04:34:18;18.80;99.90
26336;DHT22;14047;50.936;4.654;2023-07-24T04:36:44;18.80;99.90
26336;DHT22;14047;50.936;4.654;2023-07-24T04:39:10;18.70;99.90
26336;DHT22;14047;50.936;4.654;2023-07-24T04:41:36;18.70;99.90
26336;DHT22;14047;50.936;4.654;2023-07-24T04:44:02;18.70;99.90
26336;DHT22;14047;50.936;4.654;2023-07-24T04:46:28;18.60;99.90
26336;DHT22;14047;50.936;4.654;2023-07-24T04:48:53;18.60;99.90
26336;DHT22;14047;50.936;4.654;2023-07-24T04:51:19;18.50;99.90
26336;DHT22;14047;50.936;4.654;2023-07-24T04:53:45;18.50;99.90
26336;DHT22;14047;50.936;4.654;2023-07-24T04:56:11;18.50;99.90
26336;DHT22;14047;50.936;4.654;2023-07-24T04:58:37;18.50;99.90
26336;DHT22;14047;50.936;4.654;2023-07-24T05:01:04;18.40;99.90
26336;DHT22;14047;50.936;4.654;2023-07-24T05:03:30;18.50;99.90
26336;DHT22;14047;50.936;4.654;2023-07-24T05:05:56;18.50;99.90
26336;DHT22;14047;50.936;4.654;2023-07-24T05:08:23;18.50;99.90
26336;DHT22;14047;50.936;4.654;2023-07-24T05:10:56;18.50;99.90
26336;DHT22;14047;50.936;4.654;2023-07-24T05:13:22;18.40;99.90
26336;DHT22;14047;50.936;4.654;2023-07-24T05:15:48;18.30;99.90
26336;DHT22;14047;50.936;4.654;2023-07-24T05:18:14;18.20;99.90
26336;DHT22;14047;50.936;4.654;2023-07-24T05:20:47;18.30;99.90
26336;DHT22;14047;50.936;4.654;2023-07-24T05:23:14;18.30;99.90
26336;DHT22;14047;50.936;4.654;2023-07-24T05:25:40;18.50;99.90
26336;DHT22;14047;50.936;4.654;2023-07-24T05:28:07;18.70;99.90
26336;DHT22;14047;50.936;4.654;2023-07-24T05:30:33;18.90;99.90
26336;DHT22;14047;50.936;4.654;2023-07-24T05:32:59;19.00;99.90
26336;DHT22;14047;50.936;4.654;2023-07-24T05:35:25;18.80;99.90
26336;DHT22;14047;50.936;4.654;2023-07-24T05:37:51;18.80;99.90
26336;DHT22;14047;50.936;4.654;2023-07-24T05:40:17;18.80;99.90
26336;DHT22;14047;50.936;4.654;2023-07-24T05:42:42;18.90;99.90
26336;DHT22;14047;50.936;4.654;2023-07-24T05:45:10;18.90;99.90
26336;DHT22;14047;50.936;4.654;2023-07-24T05:47:40;18.90;99.90
26336;DHT22;14047;50.936;4.654;2023-07-24T05:50:06;18.60;99.90
26336;DHT22;14047;50.936;4.654;2023-07-24T05:52:32;18.80;99.90
26336;DHT22;14047;50.936;4.654;2023-07-24T05:54:58;18.70;99.90
26336;DHT22;14047;50.936;4.654;2023-07-24T05:57:24;18.80;99.90
26336;DHT22;14047;50.936;4.654;2023-07-24T05:59:50;18.90;99.90
26336;DHT22;14047;50.936;4.654;2023-07-24T06:02:17;19.00;99.90
26336;DHT22;14047;50.936;4.654;2023-07-24T06:04:43;19.10;99.90
26336;DHT22;14047;50.936;4.654;2023-07-24T06:07:09;19.30;99.90
26336;DHT22;14047;50.936;4.654;2023-07-24T06:09:35;19.30;99.90
26336;DHT22;14047;50.936;4.654;2023-07-24T06:12:01;19.50;99.90
26336;DHT22;14047;50.936;4.654;2023-07-24T06:14:27;19.60;99.90
26336;DHT22;14047;50.936;4.654;2023-07-24T06:16:53;19.70;99.90
26336;DHT22;14047;50.936;4.654;2023-07-24T06:19:18;19.80;99.90
26336;DHT22;14047;50.936;4.654;2023-07-24T06:21:44;19.80;99.90
26336;DHT22;14047;50.936;4.654;2023-07-24T06:24:10;19.80;99.90
26336;DHT22;14047;50.936;4.654;2023-07-24T06:26:38;19.80;99.90
26336;DHT22;14047;50.936;4.654;2023-07-24T06:29:04;19.60;99.90
26336;DHT22;14047;50.936;4.654;2023-07-24T06:31:30;19.50;99.90
26336;DHT22;14047;50.936;4.654;2023-07-24T06:33:56;19.70;99.90
26336;DHT22;14047;50.936;4.654;2023-07-24T06:36:22;19.80;99.90
26336;DHT22;14047;50.936;4.654;2023-07-24T06:38:48;19.90;99.90
26336;DHT22;14047;50.936;4.654;2023-07-24T06:41:14;20.10;99.90
26336;DHT22;14047;50.936;4.654;2023-07-24T06:43:43;20.00;99.90
26336;DHT22;14047;50.936;4.654;2023-07-24T06:46:08;19.80;99.90
26336;DHT22;14047;50.936;4.654;2023-07-24T06:48:34;19.80;99.90
26336;DHT22;14047;50.936;4.654;2023-07-24T06:51:00;19.80;99.90
26336;DHT22;14047;50.936;4.654;2023-07-24T06:53:26;19.60;99.90
26336;DHT22;14047;50.936;4.654;2023-07-24T06:55:52;19.70;99.90
26336;DHT22;14047;50.936;4.654;2023-07-24T06:58:18;19.90;99.90
26336;DHT22;14047;50.936;4.654;2023-07-24T07:00:44;20.00;99.90
26336;DHT22;14047;50.936;4.654;2023-07-24T07:03:10;19.90;99.90
26336;DHT22;14047;50.936;4.654;2023-07-24T07:05:35;19.90;99.90
26336;DHT22;14047;50.936;4.654;2023-07-24T07:08:01;20.00;99.90
26336;DHT22;14047;50.936;4.654;2023-07-24T07:10:27;20.10;99.90
26336;DHT22;14047;50.936;4.654;2023-07-24T07:12:53;19.90;99.90
26336;DHT22;14047;50.936;4.654;2023-07-24T07:15:20;20.00;99.90
26336;DHT22;14047;50.936;4.654;2023-07-24T07:17:46;20.20;99.90
26336;DHT22;14047;50.936;4.654;2023-07-24T07:20:12;20.20;99.90
26336;DHT22;14047;50.936;4.654;2023-07-24T07:22:38;20.00;99.90
26336;DHT22;14047;50.936;4.654;2023-07-24T07:25:04;20.10;99.90
26336;DHT22;14047;50.936;4.654;2023-07-24T07:27:30;20.10;99.90
26336;DHT22;14047;50.936;4.654;2023-07-24T07:29:56;20.20;99.90
26336;DHT22;14047;50.936;4.654;2023-07-24T07:32:22;20.30;99.90
26336;DHT22;14047;50.936;4.654;2023-07-24T07:34:48;20.20;99.90
26336;DHT22;14047;50.936;4.654;2023-07-24T07:37:14;20.10;99.90
26336;DHT22;14047;50.936;4.654;2023-07-24T07:39:39;20.20;99.90
26336;DHT22;14047;50.936;4.654;2023-07-24T07:42:05;20.20;99.90
26336;DHT22;14047;50.936;4.654;2023-07-24T07:44:31;20.30;99.90
26336;DHT22;14047;50.936;4.654;2023-07-24T07:46:57;20.20;99.90
26336;DHT22;14047;50.936;4.654;2023-07-24T07:49:23;20.20;99.90
26336;DHT22;14047;50.936;4.654;2023-07-24T07:51:49;20.00;99.90
26336;DHT22;14047;50.936;4.654;2023-07-24T07:54:15;20.00;99.90
26336;DHT22;14047;50.936;4.654;2023-07-24T07:56:41;20.10;99.90
26336;DHT22;14047;50.936;4.654;2023-07-24T07:59:08;20.00;99.90
26336;DHT22;14047;50.936;4.654;2023-07-24T08:01:36;20.10;99.90
26336;DHT22;14047;50.936;4.654;2023-07-24T08:04:02;20.10;99.90
26336;DHT22;14047;50.936;4.654;2023-07-24T08:06:28;20.40;99.90
26336;DHT22;14047;50.936;4.654;2023-07-24T08:08:54;20.60;99.90
26336;DHT22;14047;50.936;4.654;2023-07-24T08:11:20;20.90;99.90
26336;DHT22;14047;50.936;4.654;2023-07-24T08:13:45;21.10;99.90
26336;DHT22;14047;50.936;4.654;2023-07-24T08:16:15;21.40;99.90
26336;DHT22;14047;50.936;4.654;2023-07-24T08:18:45;21.40;99.90
26336;DHT22;14047;50.936;4.654;2023-07-24T08:21:12;21.50;99.90
26336;DHT22;14047;50.936;4.654;2023-07-24T08:23:39;21.60;99.90
26336;DHT22;14047;50.936;4.654;2023-07-24T08:26:06;21.60;99.90
26336;DHT22;14047;50.936;4.654;2023-07-24T08:28:32;21.40;99.90
26336;DHT22;14047;50.936;4.654;2023-07-24T08:31:00;21.30;99.90
26336;DHT22;14047;50.936;4.654;2023-07-24T08:33:28;21.50;99.90
26336;DHT22;14047;50.936;4.654;2023-07-24T08:36:02;21.80;99.90
26336;DHT22;14047;50.936;4.654;2023-07-24T08:38:29;22.20;99.90
26336;DHT22;14047;50.936;4.654;2023-07-24T08:43:35;23.00;99.90
26336;DHT22;14047;50.936;4.654;2023-07-24T08:46:02;23.10;99.90
26336;DHT22;14047;50.936;4.654;2023-07-24T08:48:33;23.10;99.90
26336;DHT22;14047;50.936;4.654;2023-07-24T08:51:06;23.00;99.90
26336;DHT22;14047;50.936;4.654;2023-07-24T08:53:33;22.80;99.90
26336;DHT22;14047;50.936;4.654;2023-07-24T08:56:03;22.70;99.90
26336;DHT22;14047;50.936;4.654;2023-07-24T08:58:29;22.40;99.90
26336;DHT22;14047;50.936;4.654;2023-07-24T09:01:00;22.30;99.90
26336;DHT22;14047;50.936;4.654;2023-07-24T09:03:26;22.30;99.90
26336;DHT22;14047;50.936;4.654;2023-07-24T09:05:52;22.00;99.90
26336;DHT22;14047;50.936;4.654;2023-07-24T09:08:36;21.80;99.90
26336;DHT22;14047;50.936;4.654;2023-07-24T09:11:04;21.70;99.90
26336;DHT22;14047;50.936;4.654;2023-07-24T09:13:30;21.40;99.90
26336;DHT22;14047;50.936;4.654;2023-07-24T09:15:57;20.90;99.90
26336;DHT22;14047;50.936;4.654;2023-07-24T09:18:23;20.60;99.90
26336;DHT22;14047;50.936;4.654;2023-07-24T09:20:49;20.60;99.90
26336;DHT22;14047;50.936;4.654;2023-07-24T09:23:15;20.50;99.90
26336;DHT22;14047;50.936;4.654;2023-07-24T09:25:43;20.40;99.90
26336;DHT22;14047;50.936;4.654;2023-07-24T09:28:16;20.30;99.90
26336;DHT22;14047;50.936;4.654;2023-07-24T09:30:52;20.10;99.90
26336;DHT22;14047;50.936;4.654;2023-07-24T09:33:18;20.10;99.90
26336;DHT22;14047;50.936;4.654;2023-07-24T09:35:44;20.00;99.90
26336;DHT22;14047;50.936;4.654;2023-07-24T09:38:11;19.90;99.90
26336;DHT22;14047;50.936;4.654;2023-07-24T09:40:41;19.70;99.90
26336;DHT22;14047;50.936;4.654;2023-07-24T09:43:28;19.50;99.90
26336;DHT22;14047;50.936;4.654;2023-07-24T09:45:55;19.20;99.90
26336;DHT22;14047;50.936;4.654;2023-07-24T09:48:24;19.30;99.90
26336;DHT22;14047;50.936;4.654;2023-07-24T09:50:53;19.40;99.90
26336;DHT22;14047;50.936;4.654;2023-07-24T09:56:07;19.40;99.90
26336;DHT22;14047;50.936;4.654;2023-07-24T09:58:38;19.60;99.90
26336;DHT22;14047;50.936;4.654;2023-07-24T10:01:06;19.60;99.90
26336;DHT22;14047;50.936;4.654;2023-07-24T10:03:38;19.80;99.90
26336;DHT22;14047;50.936;4.654;2023-07-24T10:06:05;20.00;99.90
26336;DHT22;14047;50.936;4.654;2023-07-24T10:08:31;20.20;99.90
26336;DHT22;14047;50.936;4.654;2023-07-24T10:11:01;20.20;99.90
26336;DHT22;14047;50.936;4.654;2023-07-24T10:13:27;20.10;99.90
26336;DHT22;14047;50.936;4.654;2023-07-24T10:15:54;20.10;99.90
26336;DHT22;14047;50.936;4.654;2023-07-24T10:18:27;19.90;99.90
26336;DHT22;14047;50.936;4.654;2023-07-24T10:21:08;19.90;99.90
26336;DHT22;14047;50.936;4.654;2023-07-24T10:23:35;19.90;99.90
26336;DHT22;14047;50.936;4.654;2023-07-24T10:26:05;19.80;99.90
26336;DHT22;14047;50.936;4.654;2023-07-24T10:28:37;19.80;99.90
26336;DHT22;14047;50.936;4.654;2023-07-24T10:31:07;19.80;99.90
26336;DHT22;14047;50.936;4.654;2023-07-24T10:33:35;19.90;99.90
26336;DHT22;14047;50.936;4.654;2023-07-24T10:36:09;19.90;99.90
26336;DHT22;14047;50.936;4.654;2023-07-24T10:38:39;19.90;99.90
26336;DHT22;14047;50.936;4.654;2023-07-24T10:41:06;20.00;99.90
26336;DHT22;14047;50.936;4.654;2023-07-24T10:43:44;20.20;99.90
26336;DHT22;14047;50.936;4.654;2023-07-24T10:46:10;20.40;99.90
26336;DHT22;14047;50.936;4.654;2023-07-24T10:48:37;20.60;99.90
26336;DHT22;14047;50.936;4.654;2023-07-24T10:51:07;20.90;99.90
26336;DHT22;14047;50.936;4.654;2023-07-24T10:53:35;21.30;99.90
26336;DHT22;14047;50.936;4.654;2023-07-24T10:56:02;21.60;99.90
26336;DHT22;14047;50.936;4.654;2023-07-24T10:58:29;21.90;99.90
26336;DHT22;14047;50.936;4.654;2023-07-24T11:00:55;22.30;99.90
26336;DHT22;14047;50.936;4.654;2023-07-24T11:03:22;22.50;99.90
26336;DHT22;14047;50.936;4.654;2023-07-24T11:05:48;22.30;99.90
26336;DHT22;14047;50.936;4.654;2023-07-24T11:08:15;22.10;99.90
26336;DHT22;14047;50.936;4.654;2023-07-24T11:10:49;22.00;99.90
26336;DHT22;14047;50.936;4.654;2023-07-24T11:13:17;22.00;99.90
26336;DHT22;14047;50.936;4.654;2023-07-24T11:15:43;22.20;99.90
26336;DHT22;14047;50.936;4.654;2023-07-24T11:18:09;22.10;99.90
26336;DHT22;14047;50.936;4.654;2023-07-24T11:20:44;22.00;99.90
26336;DHT22;14047;50.936;4.654;2023-07-24T11:23:12;22.20;99.90
26336;DHT22;14047;50.936;4.654;2023-07-24T11:25:39;22.40;99.90
26336;DHT22;14047;50.936;4.654;2023-07-24T11:28:06;22.60;99.90
26336;DHT22;14047;50.936;4.654;2023-07-24T11:30:32;22.90;99.90
26336;DHT22;14047;50.936;4.654;2023-07-24T11:33:00;23.20;99.90
26336;DHT22;14047;50.936;4.654;2023-07-24T11:35:27;23.10;99.90
26336;DHT22;14047;50.936;4.654;2023-07-24T11:37:53;22.50;99.90
26336;DHT22;14047;50.936;4.654;2023-07-24T11:40:19;22.40;99.90
26336;DHT22;14047;50.936;4.654;2023-07-24T11:42:48;21.80;99.90
26336;DHT22;14047;50.936;4.654;2023-07-24T11:45:14;21.60;99.90
26336;DHT22;14047;50.936;4.654;2023-07-24T11:47:45;21.70;99.90
26336;DHT22;14047;50.936;4.654;2023-07-24T11:50:11;22.00;99.90
26336;DHT22;14047;50.936;4.654;2023-07-24T11:52:42;22.40;99.90
26336;DHT22;14047;50.936;4.654;2023-07-24T11:55:15;22.60;99.90
26336;DHT22;14047;50.936;4.654;2023-07-24T11:57:42;22.80;99.90
26336;DHT22;14047;50.936;4.654;2023-07-24T12:00:19;23.00;99.90
26336;DHT22;14047;50.936;4.654;2023-07-24T12:02:45;22.90;99.90
26336;DHT22;14047;50.936;4.654;2023-07-24T12:05:11;22.70;99.90
26336;DHT22;14047;50.936;4.654;2023-07-24T12:07:37;22.60;99.90
26336;DHT22;14047;50.936;4.654;2023-07-24T12:10:05;23.00;99.90
26336;DHT22;14047;50.936;4.654;2023-07-24T12:12:46;23.40;99.90
26336;DHT22;14047;50.936;4.654;2023-07-24T12:15:14;24.10;99.90
26336;DHT22;14047;50.936;4.654;2023-07-24T12:17:40;24.60;99.90
26336;DHT22;14047;50.936;4.654;2023-07-24T12:20:08;25.10;99.90
26336;DHT22;14047;50.936;4.654;2023-07-24T12:22:36;25.20;99.90
26336;DHT22;14047;50.936;4.654;2023-07-24T12:25:04;25.30;99.90
26336;DHT22;14047;50.936;4.654;2023-07-24T12:27:30;25.10;99.90
26336;DHT22;14047;50.936;4.654;2023-07-24T12:29:57;25.20;99.90
26336;DHT22;14047;50.936;4.654;2023-07-24T12:32:23;25.30;99.90
26336;DHT22;14047;50.936;4.654;2023-07-24T12:34:51;25.50;99.90
26336;DHT22;14047;50.936;4.654;2023-07-24T12:37:18;25.40;99.90
26336;DHT22;14047;50.936;4.654;2023-07-24T12:39:45;25.60;99.90
26336;DHT22;14047;50.936;4.654;2023-07-24T12:42:11;25.70;99.90
26336;DHT22;14047;50.936;4.654;2023-07-24T12:44:37;25.10;99.90
26336;DHT22;14047;50.936;4.654;2023-07-24T12:47:04;24.70;99.90
26336;DHT22;14047;50.936;4.654;2023-07-24T12:49:30;24.50;99.90
26336;DHT22;14047;50.936;4.654;2023-07-24T12:51:56;24.30;99.90
26336;DHT22;14047;50.936;4.654;2023-07-24T12:54:22;24.40;99.90
26336;DHT22;14047;50.936;4.654;2023-07-24T12:56:49;24.50;99.90
26336;DHT22;14047;50.936;4.654;2023-07-24T12:59:16;24.50;99.90
26336;DHT22;14047;50.936;4.654;2023-07-24T13:01:43;24.60;99.90
26336;DHT22;14047;50.936;4.654;2023-07-24T13:04:09;24.70;99.90
26336;DHT22;14047;50.936;4.654;2023-07-24T13:06:35;24.50;99.90
26336;DHT22;14047;50.936;4.654;2023-07-24T13:09:01;24.30;99.90
26336;DHT22;14047;50.936;4.654;2023-07-24T13:11:27;24.00;99.90
26336;DHT22;14047;50.936;4.654;2023-07-24T13:13:54;24.10;99.90
26336;DHT22;14047;50.936;4.654;2023-07-24T13:16:20;24.20;99.90
26336;DHT22;14047;50.936;4.654;2023-07-24T13:18:46;24.20;99.90
26336;DHT22;14047;50.936;4.654;2023-07-24T13:21:12;24.00;99.90
26336;DHT22;14047;50.936;4.654;2023-07-24T13:23:40;23.90;99.90
26336;DHT22;14047;50.936;4.654;2023-07-24T13:26:06;23.60;99.90
26336;DHT22;14047;50.936;4.654;2023-07-24T13:28:36;23.30;99.90
26336;DHT22;14047;50.936;4.654;2023-07-24T13:31:18;22.90;99.90
26336;DHT22;14047;50.936;4.654;2023-07-24T13:33:44;23.30;99.90
26336;DHT22;14047;50.936;4.654;2023-07-24T13:36:10;23.50;99.90
26336;DHT22;14047;50.936;4.654;2023-07-24T13:38:37;23.60;99.90
26336;DHT22;14047;50.936;4.654;2023-07-24T13:41:03;23.40;99.90
26336;DHT22;14047;50.936;4.654;2023-07-24T13:43:31;23.30;99.90
26336;DHT22;14047;50.936;4.654;2023-07-24T13:45:57;23.40;99.90
26336;DHT22;14047;50.936;4.654;2023-07-24T13:48:26;23.40;99.90
26336;DHT22;14047;50.936;4.654;2023-07-24T13:50:52;23.30;99.90
26336;DHT22;14047;50.936;4.654;2023-07-24T13:53:18;23.10;99.90
26336;DHT22;14047;50.936;4.654;2023-07-24T13:55:44;23.00;99.90
26336;DHT22;14047;50.936;4.654;2023-07-24T13:58:10;22.80;99.90
26336;DHT22;14047;50.936;4.654;2023-07-24T14:00:38;22.90;99.90
26336;DHT22;14047;50.936;4.654;2023-07-24T14:03:04;22.90;99.90
26336;DHT22;14047;50.936;4.654;2023-07-24T14:05:30;22.80;99.90
26336;DHT22;14047;50.936;4.654;2023-07-24T14:07:56;22.80;99.90
26336;DHT22;14047;50.936;4.654;2023-07-24T14:10:22;22.90;99.90
26336;DHT22;14047;50.936;4.654;2023-07-24T14:12:48;22.90;99.90
26336;DHT22;14047;50.936;4.654;2023-07-24T14:15:13;23.10;99.90
26336;DHT22;14047;50.936;4.654;2023-07-24T14:17:40;23.20;99.90
26336;DHT22;14047;50.936;4.654;2023-07-24T14:20:06;23.40;99.90
26336;DHT22;14047;50.936;4.654;2023-07-24T14:22:32;23.60;99.90
26336;DHT22;14047;50.936;4.654;2023-07-24T14:24:58;23.60;99.90
26336;DHT22;14047;50.936;4.654;2023-07-24T14:27:24;23.50;99.90
26336;DHT22;14047;50.936;4.654;2023-07-24T14:29:50;23.50;99.90
26336;DHT22;14047;50.936;4.654;2023-07-24T14:32:16;23.80;99.90
26336;DHT22;14047;50.936;4.654;2023-07-24T14:34:42;24.20;99.90
26336;DHT22;14047;50.936;4.654;2023-07-24T14:37:12;24.30;99.90
26336;DHT22;14047;50.936;4.654;2023-07-24T14:39:38;24.80;99.90
26336;DHT22;14047;50.936;4.654;2023-07-24T14:42:04;24.70;99.90
26336;DHT22;14047;50.936;4.654;2023-07-24T14:44:30;24.20;99.90
26336;DHT22;14047;50.936;4.654;2023-07-24T14:46:56;23.80;99.90
26336;DHT22;14047;50.936;4.654;2023-07-24T14:49:22;23.20;99.90
26336;DHT22;14047;50.936;4.654;2023-07-24T14:51:48;22.40;99.90
26336;DHT22;14047;50.936;4.654;2023-07-24T14:54:14;21.70;99.90
26336;DHT22;14047;50.936;4.654;2023-07-24T14:56:40;20.50;99.90
26336;DHT22;14047;50.936;4.654;2023-07-24T14:59:06;19.20;99.90
26336;DHT22;14047;50.936;4.654;2023-07-24T15:01:32;18.50;99.90
26336;DHT22;14047;50.936;4.654;2023-07-24T15:03:58;18.10;99.90
26336;DHT22;14047;50.936;4.654;2023-07-24T15:06:24;17.90;99.90
26336;DHT22;14047;50.936;4.654;2023-07-24T15:08:50;17.80;99.90
26336;DHT22;14047;50.936;4.654;2023-07-24T15:11:22;17.70;99.90
26336;DHT22;14047;50.936;4.654;2023-07-24T15:13:49;17.70;99.90
26336;DHT22;14047;50.936;4.654;2023-07-24T15:16:15;17.80;99.90
26336;DHT22;14047;50.936;4.654;2023-07-24T15:18:41;18.00;99.90
26336;DHT22;14047;50.936;4.654;2023-07-24T15:21:06;17.90;99.90
26336;DHT22;14047;50.936;4.654;2023-07-24T15:23:34;17.80;99.90
26336;DHT22;14047;50.936;4.654;2023-07-24T15:26:00;17.80;99.90
26336;DHT22;14047;50.936;4.654;2023-07-24T15:28:26;17.70;99.90
26336;DHT22;14047;50.936;4.654;2023-07-24T15:30:52;17.60;99.90
26336;DHT22;14047;50.936;4.654;2023-07-24T15:33:18;17.50;99.90
26336;DHT22;14047;50.936;4.654;2023-07-24T15:35:44;17.40;99.90
26336;DHT22;14047;50.936;4.654;2023-07-24T15:38:10;17.30;99.90
26336;DHT22;14047;50.936;4.654;2023-07-24T15:40:38;17.20;99.90